Welcome to our Virtual Airline
Sign-in:

Flight MFC6611

  • Submitted By: Al Trump
  • Departure Airport: Hydaburg SPB (HYG)
  • Arrival Airport: Point Baker SPB (KPB)
  • Aircraft: DHC2 BEAVERA (N001MM-AM)
  • Flight Time: 00.54.37
  • Date Submitted: 2018/10/04
  • Route: FOLLOW THE TOUR FP
  • Status: Accepted
Flight Details
Gross Revenue:
(5 load / $ 52.00 per unit
$ 260.00
Fuel Cost:
(70.7604 fuel used @ 5.1 / unit)
$ 360.88

Additional Log Information:

View Log

FS[12:05] ----- Flight Opened -----
FS[12:05] Cigar Box - 1.1.4.0
FS[12:05] FS: FSX
FS[12:05] FSUIPC: v4.969
FS[12:05] Flight Number: MFC6611
FS[12:05] FS Aircraft: DHC2 Beaver N5347G Floats
FS[12:05] FS Model: DHC2
FS[12:05] FS Type: Silent
FS[12:05] Departure: HYG
FS[12:05] Arrival: KPB
FS[12:05] Flight Level: 2500
FS[12:05] Flight Type: H
FS[12:05] Passengers: 5
FS[12:05] FOB: 570 lbs
FS[12:05] Gate: n/a
FS[12:05] Crash Detection: Disabled
FS[12:05] Crash Detection Aircraft: Disabled
FS[12:05] Engines: 1 Piston
FS[12:05] NOTE: Boarding has started
FS[12:05] Parking Brake: Engaged
FS[12:05] Main Door Closed
FS[12:05] COM1: 121.05
FS[12:05] COM2: 127.80
FS[12:05] Transponder: 1200
FS[12:05] NAV1: 108.02
FS[12:05] NAV2: 110.60
FS[12:05] ADF1: 284.0
FS[12:05] ADF2: 240.0
FS[12:05] Navigation Mode: NAV
FS[12:06] Engine 1: Started
FS[12:06] Light Data: Beacon ON
FS[12:06] Light Data: Navigation ON
FS[12:06] NAV1: 108.05
FS[12:07] Flaps: Position 3
FS[12:07] Flaps: Position 5
FS[12:07] Parking Brake: Released
FS[12:07] NOTE: Taxi started
FS[12:08] NOTE: ----- TAKE OFF -----
FS[12:08] GS: 62 knots
FS[12:08] TAS: 62 knots
FS[12:08] IAS: 55 knots
FS[12:08] VS: 36 fpm
FS[12:08] FOB: 568 lbs
FS[12:08] Heading: 305°
FS[12:08] Pitch: 6°
FS[12:08] Bank: 0°
FS[12:08] Aircraft Weight: 4448.60 lbs
FS[12:08] Nearest Airport: HYG
FS[12:08] Distance: 0.49 miles
FS[12:08] Runway: ???
FS[12:08] Ground Surface: Water
FS[12:08] Ground Condition: Normal
FS[12:08] NOTE: Weather Report
FS[12:08] Wind Heading: 338°
FS[12:08] Wind Speed: 0 knots
FS[12:08] OAT: 15° C
FS[12:08] TAT: 15° C
FS[12:08] Precipitation: None
FS[12:08] Dew Point: 5° C
FS[12:08] Visibility: 62 miles
FS[12:08] METAR: No METAR available for HYG.
FS[12:08] NOTE: Climb started
FS[12:08] Flaps: Position 2
FS[12:08] GS: 62 knots
FS[12:08] TAS: 63 knots
FS[12:08] IAS: 55 knots
FS[12:08] VS: 865 fpm
FS[12:08] Flaps: Position 0
FS[12:08] GS: 60 knots
FS[12:08] TAS: 62 knots
FS[12:08] IAS: 55 knots
FS[12:08] VS: 1061 fpm
FS[12:08] View Mode: Virtual Cockpit
FS[12:10] NOTE: TOC reached
FS[12:10] NOTE: Cruise started
FS[12:10] GS: 97 knots
FS[12:10] TAS: 97 knots
FS[12:10] IAS: 90 knots
FS[12:10] VS: 172 fpm
FS[12:10] FOB: 561 lbs
FS[12:10] Heading: 295°
FS[12:10] Pitch: 4°
FS[12:10] Bank: -41°
FS[12:10] Aircraft Weight: 4441.26 lbs
FS[12:10] NOTE: TOD reached
FS[12:10] NOTE: Descent started
FS[12:10] GS: 101 knots
FS[12:10] TAS: 100 knots
FS[12:10] IAS: 94 knots
FS[12:10] VS: -401 fpm
FS[12:10] FOB: 561 lbs
FS[12:10] Heading: 305°
FS[12:10] Pitch: 0°
FS[12:10] Bank: -48°
FS[12:10] Aircraft Weight: 4441.02 lbs
FS[12:10] NOTE: On approach
FS[12:24] Recovery: Flight Saved
FS[12:32] Flaps: Position 1
FS[12:32] GS: 95 knots
FS[12:32] TAS: 96 knots
FS[12:32] IAS: 89 knots
FS[12:32] VS: -470 fpm
FS[12:32] Flaps: Position 2
FS[12:32] GS: 95 knots
FS[12:32] TAS: 95 knots
FS[12:32] IAS: 88 knots
FS[12:32] VS: -342 fpm
FS[12:32] Flaps: Position 3
FS[12:32] GS: 93 knots
FS[12:32] TAS: 94 knots
FS[12:32] IAS: 87 knots
FS[12:32] VS: -176 fpm
FS[12:32] Flaps: Position 5
FS[12:32] GS: 85 knots
FS[12:32] TAS: 86 knots
FS[12:32] IAS: 79 knots
FS[12:32] VS: -805 fpm
FS[12:32] Flaps: Position 7
FS[12:32] GS: 81 knots
FS[12:32] TAS: 83 knots
FS[12:32] IAS: 76 knots
FS[12:32] VS: -816 fpm
FS[12:32] Flaps: Position 6
FS[12:32] GS: 60 knots
FS[12:32] TAS: 60 knots
FS[12:32] IAS: 52 knots
FS[12:32] VS: -526 fpm
FS[12:32] Flaps: Position 3
FS[12:32] GS: 60 knots
FS[12:32] TAS: 61 knots
FS[12:32] IAS: 52 knots
FS[12:32] VS: -621 fpm
FS[12:32] Flaps: Position 0
FS[12:32] GS: 62 knots
FS[12:32] TAS: 62 knots
FS[12:32] IAS: 54 knots
FS[12:32] VS: -743 fpm
FS[12:35] Flaps: Position 2
FS[12:35] GS: 97 knots
FS[12:35] TAS: 98 knots
FS[12:35] IAS: 93 knots
FS[12:35] VS: -452 fpm
FS[12:35] Flaps: Position 4
FS[12:35] GS: 95 knots
FS[12:35] TAS: 96 knots
FS[12:35] IAS: 91 knots
FS[12:35] VS: -397 fpm
FS[12:35] Flaps: Position 5
FS[12:35] GS: 93 knots
FS[12:35] TAS: 93 knots
FS[12:35] IAS: 88 knots
FS[12:35] VS: -280 fpm
FS[12:35] Flaps: Position 6
FS[12:35] GS: 89 knots
FS[12:35] TAS: 90 knots
FS[12:35] IAS: 84 knots
FS[12:35] VS: -116 fpm
FS[12:35] Flaps: Position 8
FS[12:35] GS: 71 knots
FS[12:35] TAS: 73 knots
FS[12:35] IAS: 66 knots
FS[12:35] VS: -922 fpm
FS[12:36] NOTE: ----- LANDED -----
FS[12:36] Landing Rate: -105.35 fpm
FS[12:36] GS: 46 knots
FS[12:36] TAS: 46 knots
FS[12:36] IAS: 38 knots
FS[12:36] VS: -103 fpm
FS[12:36] FOB: 483 lbs
FS[12:36] Heading: 140°
FS[12:36] Pitch: 6°
FS[12:36] Bank: 1°
FS[12:36] Aircraft Weight: 4363.49 lbs
FS[12:36] Nearest Airport: 16K
FS[12:36] Distance: 0.14 miles
FS[12:36] Runway: ???
FS[12:36] Ground Surface: Water
FS[12:36] Ground Condition: Normal
FS[12:36] NOTE: Weather Report
FS[12:36] Wind Heading: 338°
FS[12:36] Wind Speed: 0 knots
FS[12:36] OAT: 14° C
FS[12:36] TAT: 15° C
FS[12:36] Precipitation: None
FS[12:36] Dew Point: 4° C
FS[12:36] Visibility: 62 miles
FS[12:36] METAR: KPBF 032253Z AUTO 18006KT 10SM CLR 31/21 A2997 RMK AO2 SLP146 T03060211KPBG 032253Z AUTO 00000KT 10SM OVC014 12/11 A3010 RMK AO2 SLP193 T01170106KPBH 032255Z AUTO 21011G19KT 10SM RA OVC009 20/20 A2943 RMK AO2 LTG DSNT SW P0001 T02030203KPBI 032253Z 06013G17KT 10SM SCT030 28/22 A2996 RMK AO2 SLP144 T02830217 $KPBX 032255Z AUTO 00000KT 10SM CLR 25/19 A3010 RMK AO2 T02520191
FS[12:36] View Mode: Virtual Cockpit
FS[12:36] NOTE: Taxi started
FS[12:38] Flaps: Position 6
FS[12:38] Flaps: Position 5
FS[12:39] Flaps: Position 3
FS[12:39] GS: 68 knots
FS[12:39] TAS: 68 knots
FS[12:39] IAS: 62 knots
FS[12:39] VS: 739 fpm
FS[12:39] Flaps: Position 0
FS[12:39] GS: 68 knots
FS[12:39] TAS: 69 knots
FS[12:39] IAS: 63 knots
FS[12:39] VS: 776 fpm
FS[12:39] View Mode: Virtual Cockpit
FS[12:49] Recovery: Flight Saved
FS[12:58] Flaps: Position 2
FS[12:58] GS: 95 knots
FS[12:58] TAS: 95 knots
FS[12:58] IAS: 90 knots
FS[12:58] VS: 129 fpm
FS[12:58] Flaps: Position 3
FS[12:58] GS: 91 knots
FS[12:58] TAS: 91 knots
FS[12:58] IAS: 86 knots
FS[12:58] VS: 322 fpm
FS[12:58] Flaps: Position 4
FS[12:58] GS: 87 knots
FS[12:58] TAS: 87 knots
FS[12:58] IAS: 81 knots
FS[12:58] VS: -242 fpm
FS[13:00] Flaps: Position 5
FS[13:00] GS: 79 knots
FS[13:00] TAS: 81 knots
FS[13:00] IAS: 75 knots
FS[13:00] VS: -1062 fpm
FS[13:00] Flaps: Position 6
FS[13:00] GS: 81 knots
FS[13:00] TAS: 81 knots
FS[13:00] IAS: 75 knots
FS[13:00] VS: -664 fpm
FS[13:00] Flaps: Position 7
FS[13:00] GS: 77 knots
FS[13:00] TAS: 79 knots
FS[13:00] IAS: 73 knots
FS[13:00] VS: -545 fpm
FS[13:00] NOTE: ----- LANDED -----
FS[13:00] Landing Rate: -249.14 fpm
FS[13:00] GS: 50 knots
FS[13:00] TAS: 51 knots
FS[13:00] IAS: 42 knots
FS[13:00] VS: -246 fpm
FS[13:00] FOB: 414 lbs
FS[13:00] Heading: 145°
FS[13:00] Pitch: 2°
FS[13:00] Bank: -1°
FS[13:00] Aircraft Weight: 4294.66 lbs
FS[13:00] Nearest Airport: KPB
FS[13:00] Distance: 0.43 miles
FS[13:00] Runway: ???
FS[13:00] Ground Surface: Water
FS[13:00] Ground Condition: Normal
FS[13:00] NOTE: Weather Report
FS[13:00] Wind Heading: 338°
FS[13:00] Wind Speed: 0 knots
FS[13:00] OAT: 14° C
FS[13:00] TAT: 15° C
FS[13:00] Precipitation: None
FS[13:00] Dew Point: 4° C
FS[13:00] Visibility: 62 miles
FS[13:00] METAR: KPBF 032253Z AUTO 18006KT 10SM CLR 31/21 A2997 RMK AO2 SLP146 T03060211KPBG 032253Z AUTO 00000KT 10SM OVC014 12/11 A3010 RMK AO2 SLP193 T01170106KPBH 032255Z AUTO 21011G19KT 10SM RA OVC009 20/20 A2943 RMK AO2 LTG DSNT SW P0001 T02030203KPBI 032253Z 06013G17KT 10SM SCT030 28/22 A2996 RMK AO2 SLP144 T02830217 $KPBX 032255Z AUTO 00000KT 10SM CLR 25/19 A3010 RMK AO2 T02520191
FS[13:00] View Mode: Virtual Cockpit
FS[13:02] NOTE: Arrived
FS[13:02] Parking Brake: Engaged
FS[13:02] Engine 1: Stopped
FS[13:02] Light Data: Navigation OFF
FS[13:02] Light Data: Beacon OFF
FS[13:02] NAV1: 108.02
FS[13:02] Gate: n/a
FS[13:02] NOTE: Flight Completed
FS[13:02] FS Aircraft: DHC2 Beaver N5347G Floats
FS[13:02] FS Model: DHC2
FS[13:02] FS Type: Silent
FS[13:02] FOB: 414 lbs
FS[13:02] Fuel Used: 156 lbs
FS[13:02] Flight Time: 00:54:37
FS[13:02] Flight Time (Dawn): 00:00:00
FS[13:02] Flight Time (Day): 00:54:37
FS[13:02] Flight Time (Dusk): 00:00:00
FS[13:02] Flight Time (Night): 00:00:00
FS[13:02] Total Landings: 2
FS[13:02] MaxSim Rate: 0x
FS[13:02] Cigar Box - 1.1.4.0
FS[13:02] ----- Flight Closed -----

Comments

Commenter Comment
Norm Richards Much better.. nice job. Norm

Route Map